createdAt,value
2022-10-28T00:01:28.066Z,9.77
2022-10-28T00:03:56.438Z,7.97
2022-10-28T00:06:25.053Z,11.52
2022-10-28T00:08:52.700Z,9.80
2022-10-28T00:11:20.958Z,11.70
2022-10-28T00:13:48.450Z,10.77
2022-10-28T00:16:16.812Z,11.43
2022-10-28T00:18:44.139Z,11.90
2022-10-28T00:21:13.474Z,13.05
2022-10-28T00:23:40.918Z,8.90
2022-10-28T00:26:10.614Z,10.88
2022-10-28T00:28:41.285Z,11.63
2022-10-28T00:31:09.250Z,11.77
2022-10-28T00:33:36.402Z,10.02
2022-10-28T00:36:23.355Z,12.40
2022-10-28T00:38:51.149Z,9.07
2022-10-28T00:41:19.726Z,10.90
2022-10-28T00:43:48.190Z,12.18
2022-10-28T00:46:18.454Z,10.27
2022-10-28T00:48:47.402Z,12.55
2022-10-28T00:51:15.429Z,12.73
2022-10-28T00:53:44.101Z,11.77
2022-10-28T00:56:11.775Z,10.27
2022-10-28T00:58:38.985Z,10.90
2022-10-28T01:01:06.093Z,11.85
2022-10-28T01:03:33.227Z,8.75
2022-10-28T01:06:01.753Z,10.10
2022-10-28T01:08:28.972Z,11.65
2022-10-28T01:11:09.122Z,8.50
2022-10-28T01:13:36.221Z,9.55
2022-10-28T01:16:08.082Z,8.55
2022-10-28T01:18:55.093Z,9.50
2022-10-28T01:21:51.196Z,8.13
2022-10-28T01:24:48.136Z,8.70
2022-10-28T01:27:25.546Z,11.60
2022-10-28T01:30:12.852Z,9.75
2022-10-28T01:32:43.122Z,9.75
2022-10-28T01:35:14.321Z,9.32
2022-10-28T01:37:47.546Z,11.48
2022-10-28T01:40:17.889Z,10.15
2022-10-28T01:42:47.013Z,10.80
2022-10-28T01:45:34.003Z,10.63
2022-10-28T01:48:01.954Z,10.52
2022-10-28T01:50:33.427Z,10.73
2022-10-28T01:53:04.209Z,11.48
2022-10-28T01:55:33.937Z,9.83
2022-10-28T01:58:02.435Z,9.98
2022-10-28T02:00:30.476Z,9.80
2022-10-28T02:02:57.581Z,12.95
2022-10-28T02:05:44.588Z,11.93
2022-10-28T02:08:18.927Z,10.45
2022-10-28T02:11:05.869Z,12.27
2022-10-28T02:13:42.859Z,11.57
2022-10-28T02:16:24.210Z,12.25
2022-10-28T02:19:00.695Z,13.95
2022-10-28T02:21:37.799Z,13.10
2022-10-28T02:24:18.964Z,13.60
2022-10-28T02:26:52.312Z,13.27
2022-10-28T02:29:29.544Z,13.83
2022-10-28T02:31:58.703Z,14.80
2022-10-28T02:34:28.119Z,16.60
2022-10-28T02:36:56.519Z,19.23
2022-10-28T02:39:26.871Z,14.07
2022-10-28T02:41:55.955Z,13.88
2022-10-28T02:44:25.820Z,13.43
2022-10-28T02:46:53.900Z,15.30
2022-10-28T02:49:20.955Z,13.43
2022-10-28T02:52:05.272Z,15.93
2022-10-28T02:54:38.935Z,15.25
2022-10-28T02:57:15.540Z,21.07
2022-10-28T02:59:42.719Z,15.77
2022-10-28T03:02:10.031Z,13.80
2022-10-28T03:04:37.175Z,13.45
2022-10-28T03:07:03.810Z,11.60
2022-10-28T03:09:30.891Z,14.60
2022-10-28T03:11:57.994Z,12.98
2022-10-28T03:14:25.002Z,11.98
2022-10-28T03:16:52.047Z,13.50
2022-10-28T03:19:19.106Z,13.15
2022-10-28T03:21:46.166Z,12.70
2022-10-28T03:24:13.207Z,11.90
2022-10-28T03:26:40.336Z,13.82
2022-10-28T03:29:07.419Z,13.02
2022-10-28T03:31:34.580Z,13.43
2022-10-28T03:34:01.658Z,13.18
2022-10-28T03:36:28.699Z,10.43
2022-10-28T03:38:55.771Z,13.52
2022-10-28T03:41:22.745Z,13.40
2022-10-28T03:43:49.866Z,12.85
2022-10-28T03:46:16.944Z,13.25
2022-10-28T03:48:44.095Z,12.63
2022-10-28T03:51:11.184Z,14.88
2022-10-28T03:53:38.262Z,11.73
2022-10-28T03:56:05.446Z,13.75
2022-10-28T03:58:35.130Z,11.50
2022-10-28T04:01:04.778Z,13.43
2022-10-28T04:03:31.970Z,11.20
2022-10-28T04:05:59.048Z,12.97
2022-10-28T04:08:26.063Z,13.48
2022-10-28T04:10:53.178Z,14.75
2022-10-28T04:13:20.302Z,16.48
2022-10-28T04:15:47.398Z,12.73
2022-10-28T04:18:14.465Z,11.38
2022-10-28T04:20:41.630Z,12.25
2022-10-28T04:23:09.513Z,14.13
2022-10-28T04:25:36.586Z,11.48
2022-10-28T04:28:03.654Z,12.88
2022-10-28T04:30:30.757Z,10.20
2022-10-28T04:32:57.834Z,13.38
2022-10-28T04:35:25.054Z,10.23
2022-10-28T04:37:52.469Z,12.65
2022-10-28T04:40:19.817Z,11.27
2022-10-28T04:42:46.861Z,11.35
2022-10-28T04:45:15.605Z,11.43
2022-10-28T04:47:42.680Z,12.17
2022-10-28T04:50:09.793Z,12.50
2022-10-28T04:52:36.491Z,11.10
2022-10-28T04:55:03.578Z,8.70
2022-10-28T04:57:32.356Z,9.93
2022-10-28T04:59:59.381Z,9.52
2022-10-28T05:02:26.514Z,10.25
2022-10-28T05:04:53.713Z,9.88
2022-10-28T05:07:22.868Z,9.93
2022-10-28T05:09:50.824Z,8.25
2022-10-28T05:12:17.861Z,10.70
2022-10-28T05:14:44.915Z,9.25
2022-10-28T05:17:12.260Z,9.00
2022-10-28T05:19:39.340Z,11.05
2022-10-28T05:22:06.417Z,9.80
2022-10-28T05:24:33.448Z,9.77
2022-10-28T05:27:00.908Z,9.52
2022-10-28T05:29:33.040Z,9.20
2022-10-28T05:32:00.961Z,9.32
2022-10-28T05:34:28.069Z,10.00
2022-10-28T05:36:55.116Z,9.23
2022-10-28T05:39:22.196Z,9.07
2022-10-28T05:41:49.288Z,10.55
2022-10-28T05:44:16.369Z,10.02
2022-10-28T05:46:43.384Z,9.05
2022-10-28T05:49:10.465Z,8.55
2022-10-28T05:51:37.552Z,8.20
2022-10-28T05:54:04.751Z,9.48
2022-10-28T05:56:31.833Z,9.90
2022-10-28T05:58:58.817Z,11.23
2022-10-28T06:01:25.963Z,10.35
2022-10-28T06:03:53.150Z,7.80
2022-10-28T06:06:20.272Z,8.45
2022-10-28T06:08:46.940Z,10.48
2022-10-28T06:11:12.600Z,8.20
2022-10-28T06:13:39.666Z,9.88
2022-10-28T06:16:07.598Z,9.10
2022-10-28T06:18:34.643Z,10.52
2022-10-28T06:21:01.598Z,9.80
2022-10-28T06:23:28.763Z,9.48
2022-10-28T06:28:29.408Z,10.30
2022-10-28T06:31:04.393Z,12.03
2022-10-28T06:33:32.613Z,10.70
2022-10-28T06:35:59.697Z,10.80
2022-10-28T06:38:27.675Z,13.35
2022-10-28T06:40:57.822Z,10.30
2022-10-28T06:43:24.972Z,12.05
2022-10-28T06:45:55.316Z,10.90
2022-10-28T06:48:24.661Z,9.80
2022-10-28T06:50:51.729Z,11.38
2022-10-28T06:53:18.826Z,14.32
2022-10-28T06:55:55.596Z,11.55
2022-10-28T06:58:23.097Z,14.10
2022-10-28T07:00:50.147Z,9.30
2022-10-28T07:03:18.741Z,8.60
2022-10-28T07:05:46.855Z,7.75
2022-10-28T07:08:14.457Z,8.10
2022-10-28T07:10:42.133Z,8.85
2022-10-28T07:13:09.325Z,8.52
2022-10-28T07:15:36.363Z,9.95
2022-10-28T07:18:03.439Z,14.15
2022-10-28T07:20:32.827Z,18.10
2022-10-28T07:23:00.858Z,13.93
2022-10-28T07:25:28.438Z,13.85
2022-10-28T07:27:57.380Z,13.43
2022-10-28T07:30:24.320Z,12.48
2022-10-28T07:32:51.661Z,13.10
2022-10-28T07:35:18.961Z,14.35
2022-10-28T07:37:46.081Z,13.50
2022-10-28T07:40:13.416Z,12.88
2022-10-28T07:42:40.516Z,14.80
2022-10-28T07:45:07.719Z,11.18
2022-10-28T07:47:34.817Z,12.32
2022-10-28T07:50:01.880Z,11.48
2022-10-28T07:52:28.955Z,12.90
2022-10-28T07:54:56.168Z,11.02
2022-10-28T07:57:23.294Z,9.68
2022-10-28T07:59:50.369Z,10.20
2022-10-28T08:02:18.723Z,10.23
2022-10-28T08:04:45.878Z,9.50
2022-10-28T08:07:13.475Z,9.17
2022-10-28T08:09:41.078Z,11.80
2022-10-28T08:12:08.527Z,9.50
2022-10-28T08:14:35.879Z,9.40
2022-10-28T08:17:02.952Z,8.75
2022-10-28T08:19:30.242Z,9.80
2022-10-28T08:21:57.404Z,9.47
2022-10-28T08:24:24.523Z,8.25
2022-10-28T08:26:51.808Z,10.52
2022-10-28T08:29:18.884Z,8.63
2022-10-28T08:31:45.956Z,11.90
2022-10-28T08:34:13.126Z,12.35
2022-10-28T08:36:40.276Z,9.85
2022-10-28T08:39:07.430Z,8.57
2022-10-28T08:41:45.700Z,9.07
2022-10-28T08:44:32.675Z,6.70
2022-10-28T08:47:19.656Z,8.80
2022-10-28T08:49:49.362Z,7.75
2022-10-28T08:52:35.448Z,7.28
2022-10-28T08:55:05.029Z,7.32
2022-10-28T08:57:52.389Z,5.72
2022-10-28T09:00:21.498Z,7.18
2022-10-28T09:02:53.868Z,9.43
2022-10-28T09:05:22.563Z,7.10
2022-10-28T09:07:49.729Z,7.30
2022-10-28T09:10:17.735Z,4.83
2022-10-28T09:12:44.742Z,7.00
2022-10-28T09:15:24.730Z,6.28
2022-10-28T09:17:52.256Z,6.72
2022-10-28T09:20:21.098Z,5.18
2022-10-28T09:22:49.190Z,4.63
2022-10-28T09:25:23.782Z,4.57
2022-10-28T09:27:57.624Z,4.37
2022-10-28T09:30:40.177Z,5.35
2022-10-28T09:33:07.265Z,4.25
2022-10-28T09:35:37.365Z,5.32
2022-10-28T09:38:12.668Z,5.05
2022-10-28T09:40:41.550Z,5.63
2022-10-28T09:43:26.878Z,3.60
2022-10-28T09:45:55.085Z,4.13
2022-10-28T09:48:26.330Z,5.15
2022-10-28T09:50:54.882Z,3.72
2022-10-28T09:53:41.915Z,3.60
2022-10-28T09:56:09.633Z,5.47
2022-10-28T09:58:37.371Z,4.40
2022-10-28T10:01:05.093Z,4.60
2022-10-28T10:03:32.820Z,6.00
2022-10-28T10:06:03.402Z,3.38
2022-10-28T10:08:31.457Z,5.00
2022-10-28T10:11:01.938Z,4.63
2022-10-28T10:13:30.314Z,4.53
2022-10-28T10:16:01.450Z,4.32
2022-10-28T10:18:32.909Z,5.07
2022-10-28T10:21:00.237Z,5.78
2022-10-28T10:23:28.425Z,4.65
2022-10-28T10:25:57.883Z,4.60
2022-10-28T10:28:26.127Z,4.50
2022-10-28T10:30:54.713Z,3.47
2022-10-28T10:33:25.133Z,6.03
2022-10-28T10:35:59.083Z,5.53
2022-10-28T10:38:27.722Z,5.25
2022-10-28T10:40:54.831Z,4.75
2022-10-28T10:43:31.460Z,6.03
2022-10-28T10:46:03.814Z,8.18
2022-10-28T10:48:32.387Z,4.27
2022-10-28T10:50:59.570Z,5.00
2022-10-28T10:53:28.226Z,4.25
2022-10-28T10:55:57.390Z,6.63
2022-10-28T10:58:25.712Z,5.80
2022-10-28T11:00:54.257Z,4.82
2022-10-28T11:03:25.341Z,4.65
2022-10-28T11:06:05.459Z,4.43
2022-10-28T11:08:43.232Z,4.57
2022-10-28T11:11:13.284Z,4.43
2022-10-28T11:13:43.580Z,5.05
2022-10-28T11:16:21.903Z,6.28
2022-10-28T11:18:50.253Z,5.25
2022-10-28T11:21:20.685Z,5.65
2022-10-28T11:23:50.962Z,3.85
2022-10-28T11:26:19.354Z,4.47
2022-10-28T11:29:07.444Z,4.13
2022-10-28T11:31:54.421Z,4.38
2022-10-28T11:34:22.455Z,3.43
2022-10-28T11:37:09.702Z,5.07
2022-10-28T11:39:56.715Z,4.97
2022-10-28T11:42:27.034Z,4.78
2022-10-28T11:44:59.585Z,6.67
2022-10-28T11:47:26.650Z,4.05
2022-10-28T11:50:02.283Z,4.37
2022-10-28T11:52:44.992Z,4.25
2022-10-28T11:55:32.358Z,3.70
2022-10-28T11:58:19.375Z,4.30
2022-10-28T12:00:54.734Z,2.05
2022-10-28T12:03:21.843Z,3.65
2022-10-28T12:05:51.900Z,2.28
2022-10-28T12:08:20.049Z,3.90
2022-10-28T12:11:07.059Z,4.22
2022-10-28T12:13:41.506Z,4.35
2022-10-28T12:16:22.706Z,4.93
2022-10-28T12:18:57.147Z,4.15
2022-10-28T12:21:42.282Z,4.20
2022-10-28T12:24:13.970Z,4.78
2022-10-28T12:26:42.489Z,3.70
2022-10-28T12:29:14.909Z,3.95
2022-10-28T12:31:50.857Z,4.72
2022-10-28T12:34:23.079Z,3.90
2022-10-28T12:36:55.389Z,3.40
2022-10-28T12:39:25.441Z,4.47
2022-10-28T12:41:52.476Z,4.38
2022-10-28T12:44:21.040Z,5.10
2022-10-28T12:49:40.936Z,4.90
2022-10-28T12:52:23.664Z,3.97
2022-10-28T12:54:54.062Z,5.80
2022-10-28T12:57:22.639Z,4.10
2022-10-28T12:59:53.804Z,3.63
2022-10-28T13:02:25.996Z,3.92
2022-10-28T13:04:53.328Z,3.58
2022-10-28T13:07:20.540Z,2.60
2022-10-28T13:10:07.558Z,3.17
2022-10-28T13:12:50.201Z,4.30
2022-10-28T13:15:23.136Z,3.70
2022-10-28T13:18:10.127Z,3.53
2022-10-28T13:20:44.509Z,6.22
2022-10-28T13:23:11.664Z,4.13
2022-10-28T13:25:46.815Z,2.05
2022-10-28T13:28:18.843Z,4.40
2022-10-28T13:30:54.590Z,2.42
2022-10-28T13:33:24.274Z,5.40
2022-10-28T13:35:51.527Z,3.22
2022-10-28T13:38:21.908Z,4.68
2022-10-28T13:40:52.305Z,3.63
2022-10-28T13:43:20.449Z,2.20
2022-10-28T13:45:55.565Z,5.97
2022-10-28T13:48:30.173Z,4.80
2022-10-28T13:51:12.876Z,4.13
2022-10-28T13:53:47.284Z,3.72
2022-10-28T13:56:15.316Z,5.47
2022-10-28T13:58:50.037Z,3.20
2022-10-28T14:01:37.168Z,4.72
2022-10-28T14:04:04.971Z,4.43
2022-10-28T14:06:33.117Z,5.07
2022-10-28T14:09:00.460Z,5.03
2022-10-28T14:11:30.280Z,4.50
2022-10-28T14:14:00.243Z,3.70
2022-10-28T14:16:30.887Z,4.23
2022-10-28T14:19:02.927Z,5.17
2022-10-28T14:21:49.905Z,3.95
2022-10-28T14:24:34.019Z,3.38
2022-10-28T14:27:08.431Z,6.10
2022-10-28T14:29:44.571Z,6.63
2022-10-28T14:32:31.687Z,3.90
2022-10-28T14:34:59.949Z,4.82
2022-10-28T14:37:28.521Z,3.97
2022-10-28T14:40:06.719Z,4.20
2022-10-28T14:42:56.522Z,4.13
2022-10-28T14:45:23.538Z,4.72
2022-10-28T14:47:54.242Z,3.08
2022-10-28T14:50:23.224Z,4.93
2022-10-28T14:52:50.989Z,10.45
2022-10-28T14:55:26.594Z,4.57
2022-10-28T14:57:54.018Z,4.60
2022-10-28T15:00:22.465Z,4.30
2022-10-28T15:02:50.874Z,5.65
2022-10-28T15:05:20.810Z,5.07
2022-10-28T15:07:48.429Z,5.47
2022-10-28T15:10:26.923Z,3.30
2022-10-28T15:12:55.141Z,5.18
2022-10-28T15:15:23.624Z,4.83
2022-10-28T15:17:50.939Z,5.20
2022-10-28T15:20:19.032Z,5.57
2022-10-28T15:22:46.956Z,4.28
2022-10-28T15:25:15.018Z,3.35
2022-10-28T15:27:43.047Z,6.75
2022-10-28T15:30:15.546Z,5.28
2022-10-28T15:32:42.641Z,4.68
2022-10-28T15:35:26.713Z,6.03
2022-10-28T15:37:54.866Z,5.72
2022-10-28T15:40:23.923Z,7.18
2022-10-28T15:42:54.308Z,7.28
2022-10-28T15:45:25.080Z,5.50
2022-10-28T15:47:52.839Z,6.78
2022-10-28T15:50:20.095Z,5.50
2022-10-28T15:52:50.034Z,3.67
2022-10-28T15:55:23.857Z,4.50
2022-10-28T15:58:00.414Z,2.90
2022-10-28T16:00:28.961Z,4.45
2022-10-28T16:02:56.967Z,9.32
2022-10-28T16:05:44.286Z,6.00
2022-10-28T16:08:28.244Z,9.40
2022-10-28T16:10:56.560Z,6.57
2022-10-28T16:13:33.316Z,6.60
2022-10-28T16:16:02.260Z,7.57
2022-10-28T16:18:30.180Z,6.80
2022-10-28T16:20:59.258Z,4.82
2022-10-28T16:23:28.613Z,17.53
2022-10-28T16:25:55.693Z,9.13
2022-10-28T16:28:26.688Z,20.55
2022-10-28T16:30:56.080Z,15.87
2022-10-28T16:33:27.294Z,24.83
2022-10-28T16:35:54.488Z,15.07
2022-10-28T16:38:21.612Z,9.40
2022-10-28T16:40:52.036Z,9.07
2022-10-28T16:43:20.906Z,7.32
2022-10-28T16:45:48.461Z,6.72
2022-10-28T16:48:16.481Z,28.75
2022-10-28T16:50:48.184Z,18.93
2022-10-28T16:53:15.526Z,37.05
2022-10-28T16:55:42.843Z,49.15
2022-10-28T16:58:10.121Z,33.90
2022-10-28T17:00:37.318Z,22.45
2022-10-28T17:03:04.485Z,16.50
2022-10-28T17:05:31.696Z,14.55
2022-10-28T17:07:59.803Z,26.73
2022-10-28T17:10:27.739Z,19.90
2022-10-28T17:12:54.932Z,10.23
2022-10-28T17:15:22.244Z,13.25
2022-10-28T17:17:49.970Z,24.85
2022-10-28T17:20:17.160Z,12.98
2022-10-28T17:22:44.226Z,9.18
2022-10-28T17:25:11.301Z,10.40
2022-10-28T17:27:38.512Z,7.13
2022-10-28T17:30:06.196Z,7.17
2022-10-28T17:32:33.334Z,7.95
2022-10-28T17:35:00.393Z,7.78
2022-10-28T17:37:27.499Z,7.88
2022-10-28T17:42:22.647Z,7.55
2022-10-28T17:44:49.800Z,13.25
2022-10-28T17:47:16.880Z,11.35
2022-10-28T17:49:43.941Z,8.98
2022-10-28T17:52:11.056Z,11.38
2022-10-28T17:54:38.165Z,7.53
2022-10-28T17:57:05.249Z,7.40
2022-10-28T17:59:32.417Z,8.00
2022-10-28T18:01:59.630Z,7.35
2022-10-28T18:04:27.028Z,5.93
2022-10-28T18:06:54.946Z,7.25
2022-10-28T18:09:22.258Z,5.97
2022-10-28T18:11:49.854Z,6.38
2022-10-28T18:14:17.688Z,5.03
2022-10-28T18:16:45.953Z,5.45
2022-10-28T18:19:13.689Z,7.07
2022-10-28T18:21:40.721Z,7.25
2022-10-28T18:24:08.235Z,6.07
2022-10-28T18:26:36.232Z,6.37
2022-10-28T18:29:04.555Z,5.60
2022-10-28T18:31:33.324Z,5.70
2022-10-28T18:34:00.939Z,7.57
2022-10-28T18:36:30.570Z,8.20
2022-10-28T18:38:58.086Z,7.18
2022-10-28T18:41:26.241Z,12.15
2022-10-28T18:43:54.277Z,10.57
2022-10-28T18:46:21.658Z,11.05
2022-10-28T18:48:49.297Z,7.20
2022-10-28T18:51:16.503Z,9.37
2022-10-28T18:53:44.509Z,6.40
2022-10-28T18:56:13.431Z,7.00
2022-10-28T18:58:41.217Z,6.60
2022-10-28T19:01:10.913Z,7.03
2022-10-28T19:03:38.082Z,8.75
2022-10-28T19:06:06.469Z,8.18
2022-10-28T19:08:33.669Z,9.23
2022-10-28T19:11:01.577Z,11.70
2022-10-28T19:13:29.168Z,10.25
2022-10-28T19:15:56.289Z,8.38
2022-10-28T19:18:23.392Z,7.70
2022-10-28T19:20:50.624Z,7.07
2022-10-28T19:23:17.848Z,6.90
2022-10-28T19:25:54.480Z,7.30
2022-10-28T19:28:21.621Z,7.93
2022-10-28T19:30:48.680Z,8.02
2022-10-28T19:33:15.749Z,9.73
2022-10-28T19:35:42.788Z,8.97
2022-10-28T19:38:09.912Z,11.98
2022-10-28T19:40:36.956Z,12.95
2022-10-28T19:43:04.029Z,9.60
2022-10-28T19:45:31.109Z,14.35
2022-10-28T19:48:01.444Z,12.75
2022-10-28T19:50:28.652Z,8.50
2022-10-28T19:52:55.872Z,6.37
2022-10-28T19:55:22.947Z,7.53
2022-10-28T19:57:52.006Z,10.32
2022-10-28T20:00:20.182Z,8.27
2022-10-28T20:02:47.936Z,10.48
2022-10-28T20:05:15.059Z,7.15
2022-10-28T20:07:42.154Z,6.17
2022-10-28T20:10:09.375Z,9.50
2022-10-28T20:12:36.459Z,7.80
2022-10-28T20:15:03.561Z,15.20
2022-10-28T20:17:30.641Z,9.20
2022-10-28T20:19:57.695Z,9.98
2022-10-28T20:22:24.723Z,7.63
2022-10-28T20:24:51.784Z,7.20
2022-10-28T20:27:18.851Z,11.68
2022-10-28T20:29:45.491Z,18.48
2022-10-28T20:32:12.576Z,14.85
2022-10-28T20:34:39.616Z,14.63
2022-10-28T20:37:06.699Z,14.90
2022-10-28T20:39:33.737Z,18.75
2022-10-28T20:42:00.802Z,12.20
2022-10-28T20:44:27.819Z,11.65
2022-10-28T20:46:54.911Z,8.70
2022-10-28T20:49:21.957Z,10.77
2022-10-28T20:51:49.934Z,8.07
2022-10-28T20:54:17.070Z,7.50
2022-10-28T20:56:44.097Z,21.73
2022-10-28T20:59:11.156Z,20.00
2022-10-28T21:01:39.585Z,18.80
2022-10-28T21:04:08.440Z,20.85
2022-10-28T21:06:36.613Z,15.55
2022-10-28T21:09:05.148Z,10.82
2022-10-28T21:11:32.315Z,9.25
2022-10-28T21:14:00.711Z,6.70
2022-10-28T21:16:28.425Z,8.75
2022-10-28T21:18:55.887Z,7.50
2022-10-28T21:21:23.702Z,7.88
2022-10-28T21:23:50.851Z,7.63
2022-10-28T21:26:17.912Z,8.73
2022-10-28T21:28:45.266Z,11.97
2022-10-28T21:31:13.981Z,8.87
2022-10-28T21:33:41.810Z,7.20
2022-10-28T21:36:11.383Z,8.50
2022-10-28T21:38:38.412Z,10.47
2022-10-28T21:41:13.947Z,8.65
2022-10-28T21:43:42.121Z,8.93
2022-10-28T21:46:09.273Z,9.23
2022-10-28T21:48:36.966Z,6.32
2022-10-28T21:51:08.582Z,5.90
2022-10-28T21:53:39.285Z,8.77
2022-10-28T21:56:11.121Z,12.35
2022-10-28T21:58:41.450Z,10.55
2022-10-28T22:01:10.129Z,11.37
2022-10-28T22:03:37.327Z,13.20
2022-10-28T22:06:04.884Z,7.97
2022-10-28T22:08:32.025Z,9.45
2022-10-28T22:11:00.032Z,6.43
2022-10-28T22:13:27.342Z,6.78
2022-10-28T22:16:02.950Z,8.80
2022-10-28T22:18:30.779Z,8.17
2022-10-28T22:20:58.162Z,7.22
2022-10-28T22:23:25.155Z,10.68
2022-10-28T22:25:52.221Z,7.63
2022-10-28T22:28:19.285Z,7.88
2022-10-28T22:30:46.358Z,7.97
2022-10-28T22:33:13.378Z,9.60
2022-10-28T22:35:40.491Z,5.53
2022-10-28T22:38:07.574Z,9.98
2022-10-28T22:40:34.621Z,7.97
2022-10-28T22:43:01.714Z,8.68
2022-10-28T22:45:28.757Z,9.37
2022-10-28T22:47:56.173Z,9.98
2022-10-28T22:50:23.449Z,8.73
2022-10-28T22:52:52.358Z,9.27
2022-10-28T22:55:19.480Z,9.32
2022-10-28T22:57:46.597Z,5.90
2022-10-28T23:00:13.957Z,9.52
2022-10-28T23:02:41.155Z,8.13
2022-10-28T23:05:08.637Z,6.25
2022-10-28T23:07:35.687Z,5.78
2022-10-28T23:10:02.728Z,5.53
2022-10-28T23:12:29.793Z,6.20
2022-10-28T23:14:58.532Z,7.30
2022-10-28T23:17:25.625Z,8.40
2022-10-28T23:19:52.669Z,7.37
2022-10-28T23:22:19.701Z,6.47
2022-10-28T23:24:46.769Z,10.18
2022-10-28T23:27:13.801Z,8.40
2022-10-28T23:29:40.948Z,8.50
2022-10-28T23:32:08.001Z,8.88
2022-10-28T23:34:35.113Z,6.93
2022-10-28T23:37:02.169Z,7.70
2022-10-28T23:39:29.997Z,7.20
2022-10-28T23:41:56.640Z,8.77
2022-10-28T23:44:23.680Z,7.78
2022-10-28T23:46:50.778Z,7.55
2022-10-28T23:49:17.849Z,6.93
2022-10-28T23:51:44.861Z,10.23
2022-10-28T23:54:11.916Z,7.30
2022-10-28T23:56:39.032Z,9.43
2022-10-28T23:59:06.154Z,6.95
